createdAt,value
2022-08-17T00:00:00.354Z,6.00
2022-08-17T00:02:27.362Z,5.75
2022-08-17T00:04:55.339Z,5.50
2022-08-17T00:07:22.536Z,5.78
2022-08-17T00:09:49.222Z,5.93
2022-08-17T00:12:40.599Z,5.40
2022-08-17T00:15:05.460Z,6.00
2022-08-17T00:17:32.723Z,6.22
2022-08-17T00:20:00.609Z,6.00
2022-08-17T00:22:34.098Z,6.53
2022-08-17T00:25:07.196Z,6.00
2022-08-17T00:27:34.633Z,6.35
2022-08-17T00:30:01.471Z,6.50
2022-08-17T00:33:11.932Z,6.28
2022-08-17T00:35:23.172Z,6.68
2022-08-17T00:37:52.063Z,5.72
2022-08-17T00:40:20.043Z,5.82
2022-08-17T00:42:48.011Z,5.93
2022-08-17T00:45:17.512Z,6.03
2022-08-17T00:47:44.441Z,6.15
2022-08-17T00:50:18.140Z,5.57
2022-08-17T00:52:56.304Z,5.40
2022-08-17T00:55:25.226Z,5.95
2022-08-17T00:58:17.314Z,6.70
2022-08-17T01:01:02.615Z,5.80
2022-08-17T01:03:31.188Z,6.65
2022-08-17T01:06:02.721Z,5.82
2022-08-17T01:08:31.583Z,6.15
2022-08-17T01:11:05.234Z,6.95
2022-08-17T01:13:51.096Z,6.80
2022-08-17T01:16:29.082Z,6.55
2022-08-17T01:19:03.880Z,7.45
2022-08-17T01:21:46.565Z,6.35
2022-08-17T01:24:14.117Z,5.90
2022-08-17T01:26:42.862Z,5.63
2022-08-17T01:29:11.350Z,5.72
2022-08-17T01:31:53.593Z,5.97
2022-08-17T01:34:21.678Z,5.60
2022-08-17T01:36:50.091Z,6.22
2022-08-17T01:39:37.462Z,6.07
2022-08-17T01:42:10.753Z,6.10
2022-08-17T01:44:40.998Z,5.22
2022-08-17T01:47:07.749Z,5.80
2022-08-17T01:49:34.517Z,6.00
2022-08-17T01:52:10.670Z,6.50
2022-08-17T01:54:41.287Z,6.32
2022-08-17T01:57:09.157Z,6.20
2022-08-17T01:59:36.395Z,6.90
2022-08-17T02:02:05.228Z,6.68
2022-08-17T02:04:32.001Z,6.65
2022-08-17T02:06:58.865Z,6.18
2022-08-17T02:09:30.226Z,6.85
2022-08-17T02:12:00.326Z,6.72
2022-08-17T02:14:46.993Z,6.40
2022-08-17T02:17:13.705Z,6.70
2022-08-17T02:19:40.416Z,6.68
2022-08-17T02:22:07.262Z,5.90
2022-08-17T02:24:59.410Z,6.20
2022-08-17T02:27:24.247Z,6.50
2022-08-17T02:29:50.914Z,6.55
2022-08-17T02:32:27.236Z,6.15
2022-08-17T02:34:56.590Z,6.90
2022-08-17T02:37:23.445Z,6.75
2022-08-17T02:39:50.214Z,6.60
2022-08-17T02:42:16.991Z,6.30
2022-08-17T02:44:44.220Z,6.15
2022-08-17T02:47:11.956Z,6.55
2022-08-17T02:49:38.694Z,6.60
2022-08-17T02:52:07.668Z,6.10
2022-08-17T02:54:41.251Z,5.80
2022-08-17T02:57:10.353Z,6.65
2022-08-17T02:59:39.260Z,6.07
2022-08-17T03:02:11.894Z,5.78
2022-08-17T03:04:38.932Z,6.63
2022-08-17T03:07:06.594Z,6.30
2022-08-17T03:09:33.322Z,6.13
2022-08-17T03:12:12.893Z,7.13
2022-08-17T03:14:41.916Z,5.97
2022-08-17T03:17:11.130Z,6.05
2022-08-17T03:19:44.379Z,6.28
2022-08-17T03:22:36.483Z,5.75
2022-08-17T03:24:57.792Z,6.07
2022-08-17T03:27:24.431Z,5.93
2022-08-17T03:29:51.099Z,5.53
2022-08-17T03:32:17.845Z,6.45
2022-08-17T03:34:44.491Z,6.28
2022-08-17T03:37:11.195Z,6.45
2022-08-17T03:39:38.822Z,6.30
2022-08-17T03:42:31.335Z,5.15
2022-08-17T03:45:00.030Z,6.10
2022-08-17T03:47:45.741Z,6.00
2022-08-17T03:50:32.385Z,6.38
2022-08-17T03:53:18.794Z,6.10
2022-08-17T03:56:04.206Z,5.75
2022-08-17T03:58:30.906Z,5.15
2022-08-17T04:00:57.681Z,5.13
2022-08-17T04:03:24.356Z,5.63
2022-08-17T04:05:51.001Z,6.85
2022-08-17T04:08:17.834Z,6.90
2022-08-17T04:10:45.024Z,6.90
2022-08-17T04:13:12.798Z,6.03
2022-08-17T04:15:39.897Z,6.10
2022-08-17T04:18:07.608Z,6.07
2022-08-17T04:20:37.638Z,5.90
2022-08-17T04:23:12.841Z,5.63
2022-08-17T04:25:44.560Z,5.75
2022-08-17T04:28:15.846Z,5.57
2022-08-17T04:30:46.105Z,5.15
2022-08-17T04:33:20.489Z,5.57
2022-08-17T04:35:52.289Z,5.78
2022-08-17T04:38:24.145Z,5.25
2022-08-17T04:41:09.846Z,5.03
2022-08-17T04:43:39.689Z,5.07
2022-08-17T04:46:13.450Z,4.68
2022-08-17T04:48:44.476Z,5.05
2022-08-17T04:51:34.408Z,5.07
2022-08-17T04:54:11.232Z,4.90
2022-08-17T04:56:38.931Z,5.10
2022-08-17T04:59:19.044Z,4.90
2022-08-17T05:01:49.987Z,5.60
2022-08-17T05:04:35.041Z,5.15
2022-08-17T05:07:03.137Z,4.97
2022-08-17T05:09:29.837Z,5.20
2022-08-17T05:12:01.157Z,4.80
2022-08-17T05:14:32.942Z,4.63
2022-08-17T05:17:01.697Z,4.68
2022-08-17T05:19:33.686Z,4.53
2022-08-17T05:22:05.424Z,4.55
2022-08-17T05:24:40.807Z,5.28
2022-08-17T05:27:10.510Z,5.82
2022-08-17T05:29:45.724Z,5.63
2022-08-17T05:32:39.479Z,5.28
2022-08-17T05:35:00.950Z,4.45
2022-08-17T05:37:27.949Z,4.75
2022-08-17T05:39:54.819Z,4.07
2022-08-17T05:42:22.425Z,4.50
2022-08-17T05:44:49.114Z,4.35
2022-08-17T05:47:16.295Z,4.40
2022-08-17T05:49:43.041Z,4.47
2022-08-17T05:52:54.935Z,4.50
2022-08-17T05:55:47.073Z,4.38
2022-08-17T05:58:31.870Z,4.30
2022-08-17T06:01:21.874Z,4.25
2022-08-17T06:04:04.076Z,4.65
2022-08-17T06:06:36.659Z,4.55
2022-08-17T06:09:37.458Z,4.50
2022-08-17T06:12:37.274Z,4.90
2022-08-17T06:15:26.256Z,4.32
2022-08-17T06:17:58.706Z,4.72
2022-08-17T06:20:32.546Z,4.55
2022-08-17T06:23:08.334Z,4.38
2022-08-17T06:25:52.121Z,4.70
2022-08-17T06:28:43.592Z,5.22
2022-08-17T06:31:29.158Z,4.55
2022-08-17T06:33:58.493Z,4.63
2022-08-17T06:37:18.862Z,5.55
2022-08-17T06:40:15.768Z,5.30
2022-08-17T06:43:12.591Z,5.50
2022-08-17T06:45:49.235Z,5.28
2022-08-17T06:48:33.663Z,6.32
2022-08-17T06:51:24.470Z,6.35
2022-08-17T06:54:06.967Z,5.75
2022-08-17T06:56:53.089Z,6.70
2022-08-17T06:59:54.529Z,6.85
2022-08-17T07:02:53.557Z,6.90
2022-08-17T07:05:32.467Z,7.40
2022-08-17T07:08:18.705Z,7.68
2022-08-17T07:10:57.159Z,7.38
2022-08-17T07:13:34.086Z,7.20
2022-08-17T07:16:22.184Z,7.18
2022-08-17T07:18:53.079Z,6.95
2022-08-17T07:22:02.441Z,6.57
2022-08-17T07:24:33.029Z,7.57
2022-08-17T07:27:23.202Z,7.70
2022-08-17T07:30:10.076Z,7.00
2022-08-17T07:32:45.239Z,7.00
2022-08-17T07:35:37.547Z,6.88
2022-08-17T07:38:28.495Z,7.72
2022-08-17T07:40:58.120Z,6.93
2022-08-17T07:43:40.154Z,7.97
2022-08-17T07:46:37.327Z,7.72
2022-08-17T07:49:04.958Z,8.38
2022-08-17T07:51:54.089Z,8.10
2022-08-17T07:54:31.851Z,8.30
2022-08-17T07:57:02.036Z,8.50
2022-08-17T07:59:38.466Z,8.10
2022-08-17T08:02:15.616Z,10.35
2022-08-17T08:05:03.590Z,8.05
2022-08-17T08:07:58.097Z,7.50
2022-08-17T08:10:45.267Z,8.20
2022-08-17T08:13:15.166Z,7.55
2022-08-17T08:15:54.704Z,9.00
2022-08-17T08:18:54.136Z,8.10
2022-08-17T08:22:15.779Z,7.82
2022-08-17T08:25:07.908Z,8.20
2022-08-17T08:27:45.788Z,8.40
2022-08-17T08:30:21.293Z,8.95
2022-08-17T08:33:23.326Z,8.10
2022-08-17T08:37:12.629Z,8.57
2022-08-17T08:39:21.806Z,8.50
2022-08-17T08:42:11.199Z,8.32
2022-08-17T08:45:04.620Z,9.27
2022-08-17T08:47:53.869Z,8.63
2022-08-17T08:50:57.832Z,8.60
2022-08-17T08:53:52.696Z,9.75
2022-08-17T08:56:37.089Z,9.85
2022-08-17T08:59:45.055Z,8.75
2022-08-17T09:03:06.148Z,8.95
2022-08-17T09:05:56.193Z,9.30
2022-08-17T09:08:37.804Z,9.13
2022-08-17T09:12:01.973Z,11.00
2022-08-17T09:14:51.641Z,8.55
2022-08-17T09:17:46.954Z,10.20
2022-08-17T09:20:28.388Z,9.95
2022-08-17T09:23:13.662Z,10.00
2022-08-17T09:26:00.797Z,10.23
2022-08-17T09:28:35.437Z,10.18
2022-08-17T09:31:41.890Z,10.05
2022-08-17T09:34:31.984Z,11.27
2022-08-17T09:37:24.460Z,10.68
2022-08-17T09:40:13.993Z,10.25
2022-08-17T09:43:21.944Z,10.38
2022-08-17T09:45:57.286Z,9.95
2022-08-17T09:48:56.577Z,11.30
2022-08-17T09:51:25.405Z,11.02
2022-08-17T09:53:52.137Z,10.18
2022-08-17T09:57:18.436Z,10.90
2022-08-17T10:00:17.357Z,10.75
2022-08-17T10:03:50.775Z,11.32
2022-08-17T10:06:27.782Z,11.63
2022-08-17T10:09:16.197Z,10.68
2022-08-17T10:12:06.455Z,10.95
2022-08-17T10:14:53.360Z,10.70
2022-08-17T10:17:42.112Z,11.27
2022-08-17T10:20:47.081Z,11.70
2022-08-17T10:23:43.226Z,11.80
2022-08-17T10:26:16.900Z,12.05
2022-08-17T10:28:54.041Z,11.30
2022-08-17T10:31:45.518Z,12.05
2022-08-17T10:34:36.125Z,12.07
2022-08-17T10:37:20.139Z,13.40
2022-08-17T10:40:13.274Z,11.70
2022-08-17T10:43:18.974Z,12.40
2022-08-17T10:46:27.628Z,13.40
2022-08-17T10:49:22.822Z,12.93
2022-08-17T10:51:58.988Z,13.32
2022-08-17T10:54:25.572Z,13.77
2022-08-17T10:56:55.540Z,15.07
2022-08-17T10:59:37.367Z,14.55
2022-08-17T11:02:23.083Z,15.75
2022-08-17T11:08:07.324Z,17.05
2022-08-17T11:10:58.073Z,18.45
2022-08-17T11:13:44.933Z,17.73
2022-08-17T11:16:54.579Z,17.58
2022-08-17T11:19:47.762Z,16.58
2022-08-17T11:22:58.080Z,17.02
2022-08-17T11:25:46.952Z,17.10
2022-08-17T11:28:20.332Z,18.35
2022-08-17T11:30:57.961Z,17.02
2022-08-17T11:33:38.153Z,16.58
2022-08-17T11:36:28.077Z,17.08
2022-08-17T11:39:06.315Z,16.25
2022-08-17T11:41:58.384Z,16.25
2022-08-17T11:44:46.725Z,19.55
2022-08-17T11:48:26.787Z,15.80
2022-08-17T11:51:33.730Z,16.67
2022-08-17T11:54:33.698Z,15.98
2022-08-17T11:57:26.427Z,19.05
2022-08-17T12:00:46.541Z,17.27
2022-08-17T12:03:34.511Z,17.65
2022-08-17T12:06:30.640Z,19.02
2022-08-17T12:09:24.860Z,20.30
2022-08-17T12:12:12.501Z,18.38
2022-08-17T12:15:11.786Z,18.88
2022-08-17T12:17:42.679Z,18.85
2022-08-17T12:20:39.914Z,19.92
2022-08-17T12:23:30.556Z,19.55
2022-08-17T12:26:19.839Z,18.40
2022-08-17T12:29:03.542Z,19.65
2022-08-17T12:31:44.262Z,18.20
2022-08-17T12:34:27.186Z,19.88
2022-08-17T12:37:03.164Z,18.80
2022-08-17T12:39:33.937Z,18.95
2022-08-17T12:42:02.551Z,18.90
2022-08-17T12:44:31.325Z,19.83
2022-08-17T12:47:06.879Z,19.83
2022-08-17T12:49:37.569Z,20.02
2022-08-17T12:52:14.925Z,20.95
2022-08-17T12:55:01.967Z,22.92
2022-08-17T12:57:38.633Z,21.30
2022-08-17T13:00:16.213Z,21.42
2022-08-17T13:02:57.310Z,23.70
2022-08-17T13:05:42.908Z,23.25
2022-08-17T13:08:27.034Z,21.67
2022-08-17T13:11:22.344Z,22.77
2022-08-17T13:13:56.181Z,25.70
2022-08-17T13:16:27.678Z,24.43
2022-08-17T13:19:06.647Z,24.35
2022-08-17T13:21:35.285Z,25.70
2022-08-17T13:24:11.225Z,26.55
2022-08-17T13:26:50.086Z,24.58
2022-08-17T13:29:51.339Z,26.48
2022-08-17T13:32:48.543Z,27.00
2022-08-17T13:35:39.386Z,27.27
2022-08-17T13:38:10.922Z,27.02
2022-08-17T13:40:50.238Z,28.40
2022-08-17T13:43:48.422Z,26.77
2022-08-17T13:46:22.355Z,29.00
2022-08-17T13:49:11.710Z,30.15
2022-08-17T13:51:49.401Z,30.60
2022-08-17T13:54:37.635Z,30.67
2022-08-17T13:57:12.773Z,28.92
2022-08-17T13:59:54.141Z,30.75
2022-08-17T14:02:27.764Z,29.17
2022-08-17T14:04:56.013Z,30.48
2022-08-17T14:07:34.692Z,29.73
2022-08-17T14:10:14.507Z,29.48
2022-08-17T14:12:43.523Z,28.77
2022-08-17T14:15:13.396Z,32.00
2022-08-17T14:17:40.176Z,31.13
2022-08-17T14:20:13.482Z,31.05
2022-08-17T14:22:45.458Z,29.95
2022-08-17T14:25:16.634Z,31.35
2022-08-17T14:27:52.256Z,30.98
2022-08-17T14:30:29.007Z,31.88
2022-08-17T14:32:57.893Z,34.97
2022-08-17T14:35:25.209Z,31.20
2022-08-17T14:37:52.696Z,32.42
2022-08-17T14:40:20.909Z,30.67
2022-08-17T14:42:48.027Z,32.78
2022-08-17T14:45:27.382Z,32.75
2022-08-17T14:47:59.164Z,31.10
2022-08-17T14:50:27.167Z,30.33
2022-08-17T14:52:57.892Z,31.83
2022-08-17T14:55:25.177Z,33.10
2022-08-17T14:57:52.046Z,30.35
2022-08-17T15:00:18.925Z,31.92
2022-08-17T15:02:58.364Z,27.80
2022-08-17T15:05:31.443Z,30.55
2022-08-17T15:08:00.793Z,29.40
2022-08-17T15:10:29.824Z,30.48
2022-08-17T15:12:57.185Z,31.25
2022-08-17T15:15:24.601Z,35.85
2022-08-17T15:17:51.727Z,38.53
2022-08-17T15:20:27.499Z,34.67
2022-08-17T15:22:55.686Z,28.02
2022-08-17T15:25:25.031Z,30.05
2022-08-17T15:27:52.160Z,29.98
2022-08-17T15:30:19.921Z,27.35
2022-08-17T15:32:51.225Z,31.00
2022-08-17T15:35:27.482Z,29.27
2022-08-17T15:38:07.840Z,34.10
2022-08-17T15:40:40.238Z,34.03
2022-08-17T15:43:15.109Z,31.15
2022-08-17T15:45:42.583Z,28.88
2022-08-17T15:48:10.185Z,28.15
2022-08-17T15:50:37.286Z,29.65
2022-08-17T15:53:04.795Z,28.63
2022-08-17T15:55:32.879Z,26.20
2022-08-17T15:58:00.557Z,27.90
2022-08-17T16:00:29.159Z,26.60
2022-08-17T16:03:33.711Z,23.25
2022-08-17T16:05:46.503Z,24.20
2022-08-17T16:08:20.122Z,25.58
2022-08-17T16:10:49.697Z,22.17
2022-08-17T16:13:18.774Z,20.63
2022-08-17T16:15:56.660Z,20.95
2022-08-17T16:18:30.728Z,18.98
2022-08-17T16:21:25.368Z,17.20
2022-08-17T16:23:58.175Z,14.15
2022-08-17T16:26:25.553Z,14.50
2022-08-17T16:28:53.362Z,15.93
2022-08-17T16:31:20.295Z,15.75
2022-08-17T16:33:58.432Z,15.27
2022-08-17T16:36:37.811Z,15.68
2022-08-17T16:39:04.763Z,15.18
2022-08-17T16:41:45.182Z,13.45
2022-08-17T16:44:18.654Z,13.65
2022-08-17T16:46:47.174Z,13.88
2022-08-17T16:49:35.896Z,15.35
2022-08-17T16:52:03.217Z,14.95
2022-08-17T16:54:30.240Z,13.70
2022-08-17T16:56:56.963Z,12.38
2022-08-17T16:59:31.888Z,11.05
2022-08-17T17:02:11.351Z,10.75
2022-08-17T17:04:53.019Z,11.45
2022-08-17T17:07:54.795Z,11.45
2022-08-17T17:10:29.030Z,10.95
2022-08-17T17:13:03.095Z,9.20
2022-08-17T17:18:51.147Z,7.50
2022-08-17T17:21:25.115Z,6.80
2022-08-17T17:24:01.154Z,7.47
2022-08-17T17:26:36.740Z,7.05
2022-08-17T17:29:09.340Z,7.65
2022-08-17T17:31:45.096Z,7.85
2022-08-17T17:34:16.481Z,7.57
2022-08-17T17:36:56.481Z,7.70
2022-08-17T17:39:41.505Z,7.13
2022-08-17T17:42:23.316Z,7.20
2022-08-17T17:45:03.869Z,7.50
2022-08-17T17:47:31.449Z,7.95
2022-08-17T17:50:01.362Z,7.20
2022-08-17T17:52:49.322Z,7.97
2022-08-17T17:55:47.118Z,6.53
2022-08-17T17:58:51.638Z,7.03
2022-08-17T18:01:44.804Z,7.35
2022-08-17T18:04:36.597Z,6.53
2022-08-17T18:07:37.654Z,7.43
2022-08-17T18:10:47.432Z,7.43
2022-08-17T18:13:35.351Z,7.28
2022-08-17T18:16:06.206Z,6.80
2022-08-17T18:18:39.751Z,6.97
2022-08-17T18:21:16.455Z,8.35
2022-08-17T18:24:02.548Z,7.68
2022-08-17T18:26:44.892Z,8.30
2022-08-17T18:29:45.666Z,9.43
2022-08-17T18:32:29.011Z,8.35
2022-08-17T18:35:03.062Z,7.95
2022-08-17T18:37:34.607Z,8.48
2022-08-17T18:40:16.305Z,9.02
2022-08-17T18:43:05.184Z,8.57
2022-08-17T18:45:35.926Z,8.45
2022-08-17T18:48:03.543Z,8.32
2022-08-17T18:50:41.357Z,7.40
2022-08-17T18:53:34.644Z,7.82
2022-08-17T18:56:16.741Z,7.97
2022-08-17T18:59:02.583Z,7.75
2022-08-17T19:04:55.662Z,7.85
2022-08-17T19:07:23.100Z,8.27
2022-08-17T19:10:06.186Z,8.70
2022-08-17T19:12:52.881Z,8.45
2022-08-17T19:15:32.824Z,9.85
2022-08-17T19:18:15.564Z,8.85
2022-08-17T19:21:11.860Z,11.48
2022-08-17T19:23:53.449Z,10.73
2022-08-17T19:26:53.319Z,10.55
2022-08-17T19:29:36.744Z,12.70
2022-08-17T19:32:07.702Z,13.75
2022-08-17T19:34:38.917Z,14.23
2022-08-17T19:37:12.505Z,15.88
2022-08-17T19:40:35.185Z,15.82
2022-08-17T19:43:26.779Z,15.73
2022-08-17T19:46:15.019Z,17.83
2022-08-17T19:49:05.917Z,18.65
2022-08-17T19:51:44.629Z,18.38
2022-08-17T19:54:33.617Z,18.80
2022-08-17T19:57:41.225Z,18.38
2022-08-17T20:00:13.916Z,17.80
2022-08-17T20:02:52.572Z,17.75
2022-08-17T20:06:10.876Z,16.77
2022-08-17T20:08:40.797Z,18.40
2022-08-17T20:11:24.726Z,19.27
2022-08-17T20:14:06.807Z,17.95
2022-08-17T20:16:34.217Z,17.58
2022-08-17T20:19:03.539Z,18.25
2022-08-17T20:21:42.466Z,18.50
2022-08-17T20:24:51.850Z,18.98
2022-08-17T20:27:31.546Z,18.92
2022-08-17T20:30:11.329Z,20.90
2022-08-17T20:33:07.704Z,20.83
2022-08-17T20:38:33.511Z,20.80
2022-08-17T20:41:03.802Z,27.05
2022-08-17T20:43:33.284Z,25.40
2022-08-17T20:46:19.270Z,26.50
2022-08-17T20:48:51.659Z,25.00
2022-08-17T20:51:40.984Z,24.45
2022-08-17T20:55:07.058Z,25.80
2022-08-17T20:57:36.718Z,27.02
2022-08-17T21:00:40.524Z,26.20
2022-08-17T21:03:28.115Z,29.52
2022-08-17T21:06:25.100Z,31.95
2022-08-17T21:09:16.401Z,27.75
2022-08-17T21:12:03.937Z,26.75
2022-08-17T21:14:57.960Z,29.67
2022-08-17T21:17:46.481Z,33.20
2022-08-17T21:20:44.536Z,30.33
2022-08-17T21:23:22.533Z,35.30
2022-08-17T21:26:30.355Z,32.38
2022-08-17T21:29:30.322Z,33.22
2022-08-17T21:32:05.538Z,31.55
2022-08-17T21:35:02.154Z,37.88
2022-08-17T21:37:37.943Z,37.55
2022-08-17T21:40:10.679Z,38.83
2022-08-17T21:43:04.798Z,37.67
2022-08-17T21:45:41.184Z,36.42
2022-08-17T21:48:17.632Z,38.83
2022-08-17T21:51:10.275Z,37.40
2022-08-17T21:53:42.929Z,37.95
2022-08-17T21:56:19.627Z,38.17
2022-08-17T21:58:58.719Z,38.55
2022-08-17T22:05:14.485Z,39.72
2022-08-17T22:07:58.809Z,47.92
2022-08-17T22:10:45.973Z,43.05
2022-08-17T22:13:23.122Z,45.20
2022-08-17T22:16:27.676Z,46.92
2022-08-17T22:18:57.932Z,45.47
2022-08-17T22:21:25.233Z,42.45
2022-08-17T22:24:06.269Z,44.15
2022-08-17T22:26:59.676Z,43.45
2022-08-17T22:30:00.255Z,44.40
2022-08-17T22:32:43.734Z,44.38
2022-08-17T22:35:29.274Z,44.58
2022-08-17T22:37:57.377Z,51.33
2022-08-17T22:40:31.808Z,52.33
2022-08-17T22:43:03.261Z,53.83
2022-08-17T22:45:30.357Z,56.55
2022-08-17T22:48:00.624Z,55.65
2022-08-17T22:50:32.935Z,58.20
2022-08-17T22:53:31.515Z,58.97
2022-08-17T22:56:16.683Z,56.22
2022-08-17T22:59:13.881Z,59.03
2022-08-17T23:01:43.152Z,57.47
2022-08-17T23:04:36.425Z,58.08
2022-08-17T23:07:03.243Z,54.97
2022-08-17T23:09:29.964Z,58.28
2022-08-17T23:11:58.581Z,57.60
2022-08-17T23:14:31.640Z,58.75
2022-08-17T23:16:59.306Z,56.60
2022-08-17T23:19:27.603Z,61.33
2022-08-17T23:21:56.543Z,57.17
2022-08-17T23:24:28.145Z,59.33
2022-08-17T23:26:59.432Z,56.05
2022-08-17T23:29:29.318Z,56.47
2022-08-17T23:31:59.610Z,61.28
2022-08-17T23:34:28.030Z,56.42
2022-08-17T23:36:55.756Z,58.28
2022-08-17T23:39:27.298Z,63.92
2022-08-17T23:41:57.868Z,65.63
2022-08-17T23:44:26.230Z,65.47
2022-08-17T23:46:54.114Z,65.15
2022-08-17T23:49:20.869Z,64.03
2022-08-17T23:51:48.930Z,64.45
2022-08-17T23:54:30.113Z,60.90
2022-08-17T23:56:56.806Z,65.40
2022-08-17T23:59:23.859Z,62.92
